createdAt,value
2023-03-22T00:00:34.052Z,8.68
2023-03-22T00:03:00.781Z,8.66
2023-03-22T00:05:27.353Z,8.62
2023-03-22T00:07:58.158Z,8.61
2023-03-22T00:10:31.512Z,8.57
2023-03-22T00:12:58.126Z,8.55
2023-03-22T00:15:24.992Z,8.51
2023-03-22T00:17:52.241Z,8.51
2023-03-22T00:20:33.920Z,8.46
2023-03-22T00:23:00.876Z,8.43
2023-03-22T00:25:27.451Z,8.41
2023-03-22T00:27:59.721Z,8.39
2023-03-22T00:30:26.535Z,8.38
2023-03-22T00:32:53.313Z,8.35
2023-03-22T00:35:19.882Z,8.33
2023-03-22T00:37:48.715Z,8.32
2023-03-22T00:40:24.356Z,8.32
2023-03-22T00:42:51.233Z,8.32
2023-03-22T00:45:29.337Z,8.33
2023-03-22T00:47:56.047Z,8.33
2023-03-22T00:50:22.724Z,8.32
2023-03-22T00:52:49.204Z,8.32
2023-03-22T00:55:16.011Z,8.31
2023-03-22T00:57:42.442Z,8.28
2023-03-22T01:00:13.925Z,8.27
2023-03-22T01:02:41.854Z,8.25
2023-03-22T01:05:23.059Z,8.23
2023-03-22T01:07:50.856Z,8.20
2023-03-22T01:10:19.183Z,8.17
2023-03-22T01:12:46.600Z,8.20
2023-03-22T01:15:13.292Z,8.21
2023-03-22T01:17:39.904Z,8.19
2023-03-22T01:20:15.229Z,8.16
2023-03-22T01:22:42.240Z,8.13
2023-03-22T01:25:09.369Z,8.15
2023-03-22T01:27:36.304Z,8.13
2023-03-22T01:30:03.637Z,8.09
2023-03-22T01:32:30.480Z,8.12
2023-03-22T01:34:57.031Z,8.10
2023-03-22T01:37:25.502Z,8.13
2023-03-22T01:39:52.345Z,8.12
2023-03-22T01:42:21.174Z,8.13
2023-03-22T01:45:13.117Z,8.15
2023-03-22T01:48:00.714Z,8.17
2023-03-22T01:50:39.674Z,8.19
2023-03-22T01:53:11.408Z,8.22
2023-03-22T01:55:38.241Z,8.24
2023-03-22T01:58:19.331Z,8.27
2023-03-22T02:00:48.044Z,8.28
2023-03-22T02:03:18.073Z,8.31
2023-03-22T02:05:44.991Z,8.32
2023-03-22T02:08:15.313Z,8.34
2023-03-22T02:10:42.258Z,8.34
2023-03-22T02:13:42.403Z,8.36
2023-03-22T02:16:18.134Z,8.37
2023-03-22T02:19:14.336Z,8.36
2023-03-22T02:22:04.763Z,8.39
2023-03-22T02:25:06.630Z,8.38
2023-03-22T02:28:03.900Z,8.37
2023-03-22T02:30:55.849Z,8.36
2023-03-22T02:33:41.849Z,8.36
2023-03-22T02:36:19.895Z,8.35
2023-03-22T02:39:08.690Z,8.34
2023-03-22T02:42:20.300Z,8.32
2023-03-22T02:45:01.248Z,8.32
2023-03-22T02:47:30.686Z,8.37
2023-03-22T02:50:07.333Z,8.37
2023-03-22T02:52:42.498Z,8.39
2023-03-22T02:55:22.350Z,8.42
2023-03-22T02:57:57.055Z,8.45
2023-03-22T03:00:26.010Z,8.49
2023-03-22T03:03:01.856Z,8.50
2023-03-22T03:05:31.989Z,8.51
2023-03-22T03:08:03.914Z,8.51
2023-03-22T03:10:31.189Z,8.52
2023-03-22T03:12:58.608Z,8.53
2023-03-22T03:15:26.216Z,8.55
2023-03-22T03:18:27.773Z,8.57
2023-03-22T03:21:03.191Z,8.57
2023-03-22T03:23:57.879Z,8.60
2023-03-22T03:26:43.361Z,8.57
2023-03-22T03:29:41.717Z,8.57
2023-03-22T03:32:21.724Z,8.59
2023-03-22T03:34:57.462Z,8.59
2023-03-22T03:37:31.661Z,8.60
2023-03-22T03:40:09.805Z,8.63
2023-03-22T03:42:40.349Z,8.63
2023-03-22T03:45:14.613Z,8.66
2023-03-22T03:47:44.755Z,8.73
2023-03-22T03:50:25.242Z,8.75
2023-03-22T03:52:53.698Z,8.76
2023-03-22T03:55:21.555Z,8.82
2023-03-22T03:57:48.055Z,8.82
2023-03-22T04:00:23.220Z,8.85
2023-03-22T04:02:49.801Z,8.89
2023-03-22T04:05:16.655Z,8.92
2023-03-22T04:07:43.201Z,8.91
2023-03-22T04:10:09.962Z,8.89
2023-03-22T04:12:45.156Z,8.85
2023-03-22T04:15:12.586Z,8.86
2023-03-22T04:17:40.267Z,8.90
2023-03-22T04:20:09.578Z,8.88
2023-03-22T04:23:01.197Z,8.93
2023-03-22T04:25:41.974Z,8.99
2023-03-22T04:28:13.687Z,9.04
2023-03-22T04:30:40.537Z,9.02
2023-03-22T04:33:07.407Z,9.05
2023-03-22T04:35:35.152Z,9.05
2023-03-22T04:38:28.132Z,9.06
2023-03-22T04:40:55.424Z,9.11
2023-03-22T04:43:21.969Z,9.11
2023-03-22T04:45:49.015Z,9.11
2023-03-22T04:48:15.665Z,9.13
2023-03-22T04:50:50.368Z,9.11
2023-03-22T04:53:17.017Z,9.08
2023-03-22T04:55:43.511Z,9.13
2023-03-22T04:58:10.155Z,9.14
2023-03-22T05:00:37.770Z,9.13
2023-03-22T05:03:13.368Z,9.15
2023-03-22T05:05:40.193Z,9.14
2023-03-22T05:08:18.676Z,9.15
2023-03-22T05:10:45.102Z,9.13
2023-03-22T05:13:11.867Z,9.10
2023-03-22T05:15:41.908Z,9.10
2023-03-22T05:18:20.811Z,9.09
2023-03-22T05:20:48.112Z,9.06
2023-03-22T05:23:19.288Z,9.02
2023-03-22T05:25:50.852Z,9.00
2023-03-22T05:28:19.596Z,8.99
2023-03-22T05:30:46.605Z,8.97
2023-03-22T05:33:14.384Z,8.94
2023-03-22T05:35:41.974Z,8.92
2023-03-22T05:38:10.052Z,8.90
2023-03-22T05:40:36.506Z,8.93
2023-03-22T05:43:17.821Z,8.90
2023-03-22T05:45:46.017Z,8.88
2023-03-22T05:48:12.644Z,8.88
2023-03-22T05:50:39.402Z,8.89
2023-03-22T05:53:06.522Z,8.88
2023-03-22T05:55:33.060Z,8.85
2023-03-22T05:58:01.508Z,8.89
2023-03-22T06:00:34.956Z,8.89
2023-03-22T06:03:03.884Z,8.89
2023-03-22T06:05:31.901Z,8.89
2023-03-22T06:07:59.577Z,8.90
2023-03-22T06:10:40.810Z,8.95
2023-03-22T06:13:10.467Z,8.99
2023-03-22T06:15:40.685Z,8.99
2023-03-22T06:18:07.457Z,9.02
2023-03-22T06:20:35.397Z,9.06
2023-03-22T06:23:02.539Z,9.11
2023-03-22T06:25:29.116Z,9.14
2023-03-22T06:27:55.574Z,9.15
2023-03-22T06:30:26.152Z,9.21
2023-03-22T06:32:52.800Z,9.32
2023-03-22T06:35:20.205Z,9.51
2023-03-22T06:37:46.737Z,9.94
2023-03-22T06:40:13.262Z,10.25
2023-03-22T06:42:39.842Z,10.57
2023-03-22T06:45:08.082Z,10.69
2023-03-22T06:47:34.722Z,10.52
2023-03-22T06:50:01.340Z,10.47
2023-03-22T06:52:40.335Z,10.32
2023-03-22T06:55:07.140Z,10.22
2023-03-22T06:57:33.604Z,10.16
2023-03-22T07:00:00.161Z,10.17
2023-03-22T07:02:54.548Z,10.19
2023-03-22T07:05:21.658Z,10.17
2023-03-22T07:07:48.170Z,10.16
2023-03-22T07:10:14.567Z,10.15
2023-03-22T07:12:41.246Z,10.13
2023-03-22T07:15:08.460Z,10.09
2023-03-22T07:17:35.496Z,10.08
2023-03-22T07:20:02.226Z,10.04
2023-03-22T07:22:31.117Z,10.02
2023-03-22T07:24:59.991Z,10.00
2023-03-22T07:27:27.851Z,10.02
2023-03-22T07:30:04.060Z,10.05
2023-03-22T07:32:30.737Z,10.13
2023-03-22T07:34:57.414Z,10.30
2023-03-22T07:37:34.166Z,10.42
2023-03-22T07:40:00.654Z,10.37
2023-03-22T07:42:27.086Z,10.38
2023-03-22T07:45:02.561Z,10.45
2023-03-22T07:47:40.338Z,10.73
2023-03-22T07:50:09.737Z,10.89
2023-03-22T07:52:36.883Z,10.71
2023-03-22T07:55:03.927Z,10.69
2023-03-22T07:57:30.462Z,10.69
2023-03-22T07:59:57.668Z,10.65
2023-03-22T08:02:30.928Z,10.73
2023-03-22T08:05:00.312Z,10.91
2023-03-22T08:07:27.796Z,11.06
2023-03-22T08:10:05.373Z,11.23
2023-03-22T08:12:33.024Z,11.55
2023-03-22T08:14:59.575Z,11.79
2023-03-22T08:17:26.340Z,11.75
2023-03-22T08:19:54.852Z,11.67
2023-03-22T08:22:26.251Z,11.56
2023-03-22T08:24:53.085Z,11.43
2023-03-22T08:27:21.471Z,11.32
2023-03-22T08:29:49.002Z,11.20
2023-03-22T08:32:33.147Z,11.23
2023-03-22T08:34:59.707Z,11.20
2023-03-22T08:37:41.951Z,11.21
2023-03-22T08:43:21.768Z,11.31
2023-03-22T08:48:22.783Z,11.51
2023-03-22T08:53:26.199Z,11.82
2023-03-22T08:56:18.722Z,11.93
2023-03-22T08:58:52.416Z,11.85
2023-03-22T09:01:21.348Z,11.75
2023-03-22T09:03:48.216Z,11.59
2023-03-22T09:06:16.143Z,11.39
2023-03-22T09:08:44.804Z,11.33
2023-03-22T09:11:12.299Z,11.32
2023-03-22T09:13:39.181Z,11.31
2023-03-22T09:16:08.745Z,11.29
2023-03-22T09:18:37.161Z,11.24
2023-03-22T09:21:05.947Z,11.27
2023-03-22T09:23:34.353Z,11.29
2023-03-22T09:26:02.481Z,11.28
2023-03-22T09:28:43.466Z,11.20
2023-03-22T09:31:10.435Z,11.20
2023-03-22T09:33:38.773Z,11.19
2023-03-22T09:36:05.891Z,11.08
2023-03-22T09:38:33.603Z,11.02
2023-03-22T09:41:07.409Z,10.97
2023-03-22T09:43:47.935Z,10.88
2023-03-22T09:46:30.801Z,10.77
2023-03-22T09:48:59.866Z,10.68
2023-03-22T09:51:40.636Z,10.69
2023-03-22T09:54:18.494Z,10.66
2023-03-22T09:57:26.373Z,10.67
2023-03-22T10:00:09.245Z,10.52
2023-03-22T10:03:09.134Z,10.42
2023-03-22T10:05:50.051Z,10.34
2023-03-22T10:08:37.754Z,10.31
2023-03-22T10:11:06.402Z,10.33
2023-03-22T10:14:02.653Z,10.31
2023-03-22T10:16:33.952Z,10.26
2023-03-22T10:19:36.131Z,10.25
2023-03-22T10:22:06.515Z,10.30
2023-03-22T10:27:19.890Z,10.28
2023-03-22T10:44:23.407Z,10.25
2023-03-22T10:46:51.441Z,10.24
2023-03-22T10:49:32.951Z,10.20
2023-03-22T10:52:16.791Z,10.17
2023-03-22T10:54:43.848Z,10.17
2023-03-22T10:59:59.524Z,10.20
2023-03-22T11:06:37.075Z,10.24
2023-03-22T11:09:27.102Z,10.27
2023-03-22T11:12:00.477Z,10.34
2023-03-22T11:14:45.653Z,10.42
2023-03-22T11:22:49.824Z,10.50
2023-03-22T11:28:26.511Z,10.43
2023-03-22T11:31:03.667Z,10.49
2023-03-22T11:33:30.902Z,10.52
2023-03-22T11:36:28.373Z,10.59
2023-03-22T11:39:06.226Z,10.61
2023-03-22T11:41:36.836Z,10.67
2023-03-22T11:44:07.989Z,10.68
2023-03-22T11:49:20.299Z,10.69
2023-03-22T11:51:47.044Z,10.66
2023-03-22T11:54:24.196Z,10.68
2023-03-22T11:56:51.081Z,10.68
2023-03-22T11:59:39.422Z,10.64
2023-03-22T12:05:34.331Z,10.57
2023-03-22T12:08:11.121Z,10.59
2023-03-22T12:10:52.830Z,10.61
2023-03-22T12:19:18.449Z,10.65
2023-03-22T12:21:52.461Z,10.68
2023-03-22T12:24:40.040Z,10.68
2023-03-22T12:27:24.369Z,10.71
2023-03-22T12:30:02.994Z,10.72
2023-03-22T12:32:53.666Z,10.70
2023-03-22T12:35:27.237Z,10.71
2023-03-22T12:41:20.135Z,10.72
2023-03-22T12:44:06.203Z,10.75
2023-03-22T12:46:47.763Z,10.76
2023-03-22T12:49:27.732Z,10.78
2023-03-22T12:52:08.973Z,10.78
2023-03-22T12:54:39.735Z,10.81
2023-03-22T12:57:13.568Z,10.81
2023-03-22T12:59:57.001Z,10.83
2023-03-22T13:02:32.045Z,10.88
2023-03-22T13:05:02.111Z,10.93
2023-03-22T13:07:31.938Z,10.92
2023-03-22T13:09:59.858Z,10.93
2023-03-22T13:12:35.593Z,10.93
2023-03-22T13:18:55.351Z,10.93
2023-03-22T13:21:43.416Z,10.91
2023-03-22T13:24:10.418Z,10.90
2023-03-22T13:26:47.420Z,10.90
2023-03-22T13:29:38.980Z,10.88
2023-03-22T13:32:30.065Z,10.91
2023-03-22T13:46:47.148Z,10.96
2023-03-22T13:52:51.935Z,10.98
2023-03-22T13:55:41.267Z,10.95
2023-03-22T13:58:38.223Z,10.93
2023-03-22T14:03:55.614Z,10.99
2023-03-22T14:07:08.990Z,11.00
2023-03-22T14:09:51.311Z,11.01
2023-03-22T14:13:08.498Z,11.01
2023-03-22T14:15:53.815Z,11.05
2023-03-22T14:18:41.523Z,11.06
2023-03-22T14:21:20.393Z,11.08
